Time;durP1;ratioP1;P1;durP2;ratioP2;P2;SDS_P1;SDS_P2;PMS_P1;PMS_P2;Temp;Humidity;BMP_temperature;BMP_pressure;BME280_temperature;BME280_humidity;BME280_pressure;Samples;Min_cycle;Max_cycle;Signal;HPM_P1;HPM_P2
2022/09/25 00:01:09;;;;;;;;;;;;;;;9.46;100.00;-25331.50;5038731;28;19921;-83
2022/09/25 00:03:34;;;;;;;;;;;;;;;9.45;100.00;-25331.38;5034529;28;19923;-83
2022/09/25 00:06:02;;;;;;;;;;;;;;;9.44;100.00;-25331.06;5026321;28;19944;-78
2022/09/25 00:08:28;;;;;;;;;;;;;;;9.44;100.00;-25331.06;5015513;28;19922;-81
2022/09/25 00:10:54;;;;;;;;;;;;;;;9.44;100.00;-25330.91;5016637;28;19986;-79
2022/09/25 00:13:20;;;;;;;;;;;;;;;9.44;100.00;-25330.91;5031437;28;19917;-82
2022/09/25 00:15:51;;;;;;;;;;;;;;;9.42;100.00;-25330.34;5014654;28;19919;-83
2022/09/25 00:21:04;;;;;;;;;;;;;;;9.35;100.00;-25328.41;5027078;28;19924;-79
2022/09/25 00:23:33;;;;;;;;;;;;;;;9.35;100.00;-25328.41;5005627;28;20016;-80
2022/09/25 00:25:59;;;;;;;;;;;;;;;9.35;100.00;-25328.41;5006972;28;19991;-80
2022/09/25 00:28:28;;;;;;;;;;;;;;;9.33;100.00;-25327.97;5007843;28;19929;-82
2022/09/25 00:30:53;;;;;;;;;;;;;;;9.32;100.00;-25327.69;5006552;28;19925;-79
2022/09/25 00:33:20;;;;;;;;;;;;;;;9.30;100.00;-25327.09;5024262;28;19918;-80
2022/09/25 00:35:45;;;;;;;;;;;;;;;9.28;100.00;-25326.38;5004766;28;19950;-79
2022/09/25 00:38:10;;;;;;;;;;;;;;;9.27;100.00;-25326.06;5007617;28;20005;-78
2022/09/25 00:40:37;;;;;;;;;;;;;;;9.25;100.00;-25325.63;5008612;28;19917;-78
2022/09/25 00:43:04;;;;;;;;;;;;;;;9.25;100.00;-25325.50;5008640;28;19936;-81
2022/09/25 00:45:30;;;;;;;;;;;;;;;9.25;100.00;-25325.50;5008313;28;19940;-83
2022/09/25 00:48:03;;;;;;;;;;;;;;;9.25;100.00;-25325.50;5007527;28;20008;-83
2022/09/25 00:50:31;;;;;;;;;;;;;;;9.24;100.00;-25325.19;5006946;28;19921;-80
2022/09/25 00:53:04;;;;;;;;;;;;;;;9.22;100.00;-25324.75;5026085;28;19972;-77
2022/09/25 00:55:32;;;;;;;;;;;;;;;9.23;100.00;-25324.91;4993258;28;19922;-79
2022/09/25 00:58:17;;;;;;;;;;;;;;;9.23;100.00;-25325.03;4993952;28;19921;-82
2022/09/25 01:00:44;;;;;;;;;;;;;;;9.19;100.00;-25323.88;5024791;28;19921;-78
2022/09/25 01:03:12;;;;;;;;;;;;;;;9.18;100.00;-25323.56;5024954;28;19996;-78
2022/09/25 01:05:41;;;;;;;;;;;;;;;9.16;100.00;-25323.13;5028035;28;19925;-79
2022/09/25 01:08:10;;;;;;;;;;;;;;;9.12;100.00;-25321.97;5028474;28;19940;-77
2022/09/25 01:10:37;;;;;;;;;;;;;;;9.09;100.00;-25321.06;5026993;28;19963;-79
2022/09/25 01:13:05;;;;;;;;;;;;;;;9.06;100.00;-25320.03;5009041;28;19921;-80
2022/09/25 01:15:45;;;;;;;;;;;;;;;9.09;100.00;-25320.94;5023471;28;19943;-81
2022/09/25 01:18:30;;;;;;;;;;;;;;;9.08;100.00;-25320.63;5023886;28;19922;-79
2022/09/25 01:21:14;;;;;;;;;;;;;;;9.03;100.00;-25319.31;5027413;28;19930;-81
2022/09/25 01:23:40;;;;;;;;;;;;;;;9.01;100.00;-25318.72;5023625;28;19917;-80
2022/09/25 01:26:33;;;;;;;;;;;;;;;8.95;100.00;-25317.09;5027159;28;19921;-79
2022/09/25 01:29:02;;;;;;;;;;;;;;;8.93;100.00;-25316.38;5020103;28;19917;-83
2022/09/25 01:31:35;;;;;;;;;;;;;;;8.89;100.00;-25315.34;5022390;28;20052;-79
2022/09/25 01:34:24;;;;;;;;;;;;;;;8.83;100.00;-25313.56;5021630;28;19917;-81
2022/09/25 01:36:56;;;;;;;;;;;;;;;8.79;100.00;-25312.53;5024325;28;19921;-79
2022/09/25 01:39:26;;;;;;;;;;;;;;;8.78;100.00;-25312.09;5021502;28;19966;-76
2022/09/25 01:41:57;;;;;;;;;;;;;;;8.75;100.00;-25311.22;5020339;28;19921;-78
2022/09/25 01:44:46;;;;;;;;;;;;;;;8.76;100.00;-25311.66;5017169;28;20277;-81
2022/09/25 01:47:21;;;;;;;;;;;;;;;8.81;100.00;-25313.00;5021291;28;19918;-78
2022/09/25 01:49:51;;;;;;;;;;;;;;;8.78;100.00;-25312.25;5023854;28;19921;-78
2022/09/25 01:52:22;;;;;;;;;;;;;;;8.76;100.00;-25311.50;5017777;28;19940;-78
2022/09/25 01:54:54;;;;;;;;;;;;;;;8.75;100.00;-25311.38;5021520;28;19925;-77
2022/09/25 01:57:42;;;;;;;;;;;;;;;8.76;100.00;-25311.50;5004549;28;19992;-79
2022/09/25 02:00:14;;;;;;;;;;;;;;;8.75;100.00;-25311.38;5017247;28;19917;-78
2022/09/25 02:03:02;;;;;;;;;;;;;;;8.74;100.00;-25311.06;5014699;28;20393;-79
2022/09/25 02:05:36;;;;;;;;;;;;;;;8.74;100.00;-25310.94;5018191;28;19929;-78
2022/09/25 02:08:13;;;;;;;;;;;;;;;8.74;100.00;-25310.94;4987118;28;19965;-78
2022/09/25 02:10:43;;;;;;;;;;;;;;;8.71;100.00;-25310.19;4981177;28;19955;-79
2022/09/25 02:13:50;;;;;;;;;;;;;;;8.68;100.00;-25309.31;5020975;28;19917;-77
2022/09/25 02:16:21;;;;;;;;;;;;;;;8.78;100.00;-25312.25;5018797;28;19918;-78
2022/09/25 02:22:08;;;;;;;;;;;;;;;8.77;100.00;-25311.81;5006187;28;19928;-76
2022/09/25 02:24:55;;;;;;;;;;;;;;;8.77;100.00;-25311.81;5005951;28;19957;-79
2022/09/25 02:27:21;;;;;;;;;;;;;;;8.81;100.00;-25313.00;5006237;28;19917;-82
2022/09/25 02:29:48;;;;;;;;;;;;;;;8.80;100.00;-25312.69;5025904;28;19925;-81
2022/09/25 02:32:19;;;;;;;;;;;;;;;8.86;100.00;-25314.47;4989740;28;19985;-81
2022/09/25 02:34:47;;;;;;;;;;;;;;;8.82;100.00;-25313.28;5021199;28;20033;-79
2022/09/25 02:37:15;;;;;;;;;;;;;;;8.84;100.00;-25313.88;5007877;28;19922;-77
2022/09/25 02:39:44;;;;;;;;;;;;;;;8.83;100.00;-25313.56;5006546;28;19953;-78
2022/09/25 02:42:29;;;;;;;;;;;;;;;8.82;100.00;-25313.13;5021870;28;19951;-78
2022/09/25 02:44:54;;;;;;;;;;;;;;;8.77;100.00;-25311.81;5004878;28;19964;-78
2022/09/25 02:47:46;;;;;;;;;;;;;;;8.81;100.00;-25313.00;5004571;28;19918;-78
2022/09/25 02:50:29;;;;;;;;;;;;;;;8.86;100.00;-25314.47;5021269;28;19956;-77
2022/09/25 02:53:01;;;;;;;;;;;;;;;8.88;100.00;-25314.91;4988625;28;19922;-80
2022/09/25 02:55:33;;;;;;;;;;;;;;;8.95;100.00;-25317.09;5002994;28;19913;-81
2022/09/25 02:58:06;;;;;;;;;;;;;;;9.04;100.00;-25319.59;5001291;28;19922;-79
2022/09/25 03:00:34;;;;;;;;;;;;;;;9.10;100.00;-25321.38;4966878;28;20374;-81
2022/09/25 03:03:05;;;;;;;;;;;;;;;9.18;100.00;-25323.56;5011329;28;19917;-77
2022/09/25 03:05:52;;;;;;;;;;;;;;;9.27;100.00;-25326.06;5003018;28;19922;-77
2022/09/25 03:08:41;;;;;;;;;;;;;;;9.33;100.00;-25327.97;5014256;28;19922;-76
2022/09/25 03:11:13;;;;;;;;;;;;;;;9.41;100.00;-25330.03;5009451;28;20344;-77
2022/09/25 03:14:03;;;;;;;;;;;;;;;9.45;100.00;-25331.22;5021291;28;19921;-78
2022/09/25 03:16:40;;;;;;;;;;;;;;;9.43;100.00;-25330.63;5023715;28;19917;-78
2022/09/25 03:19:11;;;;;;;;;;;;;;;9.40;100.00;-25329.91;5021207;28;19918;-78
2022/09/25 03:21:37;;;;;;;;;;;;;;;9.43;100.00;-25330.78;5002965;28;20514;-84
2022/09/25 03:24:26;;;;;;;;;;;;;;;9.55;100.00;-25334.16;5002501;28;20009;-78
2022/09/25 03:26:55;;;;;;;;;;;;;;;9.59;100.00;-25335.34;5023976;28;19945;-77
2022/09/25 03:29:24;;;;;;;;;;;;;;;9.61;100.00;-25335.78;5022972;28;19917;-79
2022/09/25 03:31:59;;;;;;;;;;;;;;;9.67;100.00;-25337.69;5022466;28;19918;-76
2022/09/25 03:34:26;;;;;;;;;;;;;;;9.70;100.00;-25338.56;5023970;28;19925;-83
2022/09/25 03:36:52;;;;;;;;;;;;;;;9.74;100.00;-25339.44;5022168;28;19921;-78
2022/09/25 03:39:18;;;;;;;;;;;;;;;9.73;100.00;-25339.31;5025564;28;20361;-77
2022/09/25 03:41:44;;;;;;;;;;;;;;;9.79;100.00;-25340.91;5010414;28;19926;-78
2022/09/25 03:44:10;;;;;;;;;;;;;;;9.82;100.00;-25341.78;5008787;28;19960;-78
2022/09/25 03:46:36;;;;;;;;;;;;;;;9.91;100.00;-25344.28;5025822;28;19965;-79
2022/09/25 03:49:03;;;;;;;;;;;;;;;9.88;100.00;-25343.56;5009485;28;20551;-82
2022/09/25 03:51:29;;;;;;;;;;;;;;;9.88;100.00;-25343.56;5009160;28;19981;-78
2022/09/25 03:53:58;;;;;;;;;;;;;;;9.83;100.00;-25342.09;5026474;28;20362;-76
2022/09/25 03:56:24;;;;;;;;;;;;;;;9.77;100.00;-25340.47;5010185;28;19923;-81
2022/09/25 03:58:53;;;;;;;;;;;;;;;9.69;100.00;-25338.28;5025519;28;19960;-81
2022/09/25 04:01:18;;;;;;;;;;;;;;;9.66;100.00;-25337.25;5028110;28;19917;-77
2022/09/25 04:03:46;;;;;;;;;;;;;;;9.66;100.00;-25337.38;5029026;28;19920;-77
2022/09/25 04:06:11;;;;;;;;;;;;;;;9.59;100.00;-25335.34;5011572;28;19945;-77
2022/09/25 04:08:43;;;;;;;;;;;;;;;9.53;100.00;-25333.56;5019529;28;20271;-76
2022/09/25 04:11:10;;;;;;;;;;;;;;;9.47;100.00;-25331.94;5033968;28;19944;-77
2022/09/25 04:13:58;;;;;;;;;;;;;;;9.42;100.00;-25330.34;5023014;28;19953;-77
2022/09/25 04:16:32;;;;;;;;;;;;;;;9.37;100.00;-25329.00;5039288;28;20205;-76
2022/09/25 04:18:57;;;;;;;;;;;;;;;9.33;100.00;-25327.97;5005807;28;19979;-77
2022/09/25 04:21:23;;;;;;;;;;;;;;;9.28;100.00;-25326.38;5005634;28;20229;-77
2022/09/25 04:26:33;;;;;;;;;;;;;;;9.22;100.00;-25324.75;5039861;28;19978;-76
2022/09/25 04:29:02;;;;;;;;;;;;;;;9.17;100.00;-25323.28;5020776;28;20381;-75
2022/09/25 04:31:32;;;;;;;;;;;;;;;9.13;100.00;-25322.25;5021361;28;19924;-77
2022/09/25 04:33:59;;;;;;;;;;;;;;;9.08;100.00;-25320.78;5039869;28;20000;-77
2022/09/25 04:36:27;;;;;;;;;;;;;;;9.05;100.00;-25319.75;5036529;28;19944;-77
2022/09/25 04:38:53;;;;;;;;;;;;;;;8.98;100.00;-25318.00;5020385;28;19926;-76
2022/09/25 04:41:50;;;;;;;;;;;;;;;8.91;100.00;-25315.94;5008848;28;20385;-77
2022/09/25 04:44:16;;;;;;;;;;;;;;;8.92;100.00;-25316.06;5020903;28;19936;-76
2022/09/25 04:46:54;;;;;;;;;;;;;;;8.88;100.00;-25315.03;5020675;28;19921;-76
2022/09/25 04:49:30;;;;;;;;;;;;;;;8.82;100.00;-25313.28;5020386;28;19921;-77
2022/09/25 04:52:16;;;;;;;;;;;;;;;8.78;100.00;-25312.09;5021767;28;20384;-76
2022/09/25 04:54:41;;;;;;;;;;;;;;;8.76;100.00;-25311.50;5016077;28;19917;-75
2022/09/25 04:57:07;;;;;;;;;;;;;;;8.73;100.00;-25310.78;5004836;28;20006;-76
2022/09/25 04:59:36;;;;;;;;;;;;;;;8.72;100.00;-25310.34;5039767;28;19917;-76
2022/09/25 05:02:03;;;;;;;;;;;;;;;8.67;100.00;-25309.00;5022526;28;19960;-76
2022/09/25 05:04:49;;;;;;;;;;;;;;;8.67;100.00;-25308.88;5020983;28;19936;-77
2022/09/25 05:07:55;;;;;;;;;;;;;;;8.65;100.00;-25308.28;5039673;28;19921;-76
2022/09/25 05:10:30;;;;;;;;;;;;;;;8.70;98.39;-25309.91;5036027;28;20020;-76
2022/09/25 05:12:59;;;;;;;;;;;;;;;8.76;92.14;-25311.66;4999601;28;19925;-76
2022/09/25 05:15:27;;;;;;;;;;;;;;;8.76;89.14;-25311.66;5030859;23;19975;-76
2022/09/25 05:17:59;;;;;;;;;;;;;;;8.72;88.25;-25310.47;5058880;28;19925;-77
2022/09/25 05:20:24;;;;;;;;;;;;;;;8.69;88.08;-25309.47;5057969;28;20281;-77
2022/09/25 05:22:53;;;;;;;;;;;;;;;8.67;87.05;-25308.88;5060012;28;20373;-76
2022/09/25 05:25:18;;;;;;;;;;;;;;;8.71;85.70;-25310.03;5044580;28;20672;-76
2022/09/25 05:27:44;;;;;;;;;;;;;;;8.74;84.36;-25310.94;5049438;28;19921;-76
2022/09/25 05:30:10;;;;;;;;;;;;;;;8.77;83.20;-25311.81;5061624;28;19976;-76
2022/09/25 05:32:36;;;;;;;;;;;;;;;8.82;82.25;-25313.28;5061912;28;19926;-76
2022/09/25 05:35:02;;;;;;;;;;;;;;;8.88;81.61;-25315.03;5061921;28;19980;-76
2022/09/25 05:37:27;;;;;;;;;;;;;;;8.93;81.09;-25316.38;5061334;28;20547;-76
2022/09/25 05:39:53;;;;;;;;;;;;;;;9.00;80.56;-25318.44;5062244;28;19970;-76
2022/09/25 05:42:23;;;;;;;;;;;;;;;9.09;80.02;-25320.94;5062536;28;19917;-76
2022/09/25 05:44:56;;;;;;;;;;;;;;;9.13;79.56;-25322.25;5062626;28;19923;-76
2022/09/25 05:47:21;;;;;;;;;;;;;;;9.17;79.26;-25323.28;5073330;22;19930;-75
2022/09/25 05:49:47;;;;;;;;;;;;;;;9.17;79.19;-25323.28;5067043;28;19984;-76
2022/09/25 05:52:12;;;;;;;;;;;;;;;9.14;79.35;-25322.53;5065780;28;19916;-76
2022/09/25 05:54:37;;;;;;;;;;;;;;;9.16;79.35;-25322.97;5062878;28;19920;-76
2022/09/25 05:57:02;;;;;;;;;;;;;;;9.21;79.11;-25324.44;5063715;28;20332;-76
2022/09/25 05:59:28;;;;;;;;;;;;;;;9.26;78.84;-25325.94;5068867;28;19923;-76
2022/09/25 06:01:53;;;;;;;;;;;;;;;9.37;78.59;-25328.88;5087288;28;19923;-76
2022/09/25 06:04:24;;;;;;;;;;;;;;;9.44;78.44;-25330.91;5067640;28;19942;-78
2022/09/25 06:06:49;;;;;;;;;;;;;;;9.52;78.36;-25333.28;5062685;22;19922;-76
2022/09/25 06:09:14;;;;;;;;;;;;;;;9.68;78.06;-25337.84;5030771;28;19936;-77
2022/09/25 06:11:40;;;;;;;;;;;;;;;9.85;78.02;-25342.81;5032495;28;19921;-76
2022/09/25 06:14:07;;;;;;;;;;;;;;;10.00;78.39;-25347.09;5028924;28;19917;-76
2022/09/25 06:16:33;;;;;;;;;;;;;;;10.15;79.08;-25351.19;5031225;28;19906;-76
2022/09/25 06:18:58;;;;;;;;;;;;;;;10.34;79.88;-25356.63;5033140;28;19948;-80
2022/09/25 06:21:23;;;;;;;;;;;;;;;10.50;82.99;-25361.19;5037383;28;19909;-77
2022/09/25 06:23:48;;;;;;;;;;;;;;;10.87;92.46;-25371.88;5060952;23;19925;-77
2022/09/25 06:26:14;;;;;;;;;;;;;;;11.41;100.00;-25387.13;5022952;28;19921;-76
2022/09/25 06:28:39;;;;;;;;;;;;;;;11.60;100.00;-25392.53;5015877;28;20017;-76
2022/09/25 06:31:05;;;;;;;;;;;;;;;11.58;100.00;-25392.09;5016371;28;19921;-76
2022/09/25 06:33:31;;;;;;;;;;;;;;;11.36;100.00;-25385.66;5017466;28;20362;-77
2022/09/25 06:35:56;;;;;;;;;;;;;;;11.20;100.00;-25381.13;5016823;28;19921;-76
2022/09/25 06:38:22;;;;;;;;;;;;;;;11.02;100.00;-25376.00;5015928;28;20393;-77
2022/09/25 06:40:47;;;;;;;;;;;;;;;10.86;100.00;-25371.59;5016817;28;19956;-77
2022/09/25 06:43:20;;;;;;;;;;;;;;;10.87;100.00;-25371.75;5021355;28;19918;-76
2022/09/25 06:45:49;;;;;;;;;;;;;;;10.87;100.00;-25371.75;5024260;28;20357;-77
2022/09/25 06:48:15;;;;;;;;;;;;;;;10.84;100.00;-25371.00;5024816;28;19928;-78
2022/09/25 06:50:49;;;;;;;;;;;;;;;10.84;100.00;-25371.00;5023862;28;20357;-77
2022/09/25 06:53:15;;;;;;;;;;;;;;;10.93;100.00;-25373.50;5025445;28;19984;-80
2022/09/25 06:55:42;;;;;;;;;;;;;;;10.99;100.00;-25375.25;5026440;28;19917;-77
2022/09/25 06:58:11;;;;;;;;;;;;;;;11.02;100.00;-25376.00;5028710;28;19917;-79
2022/09/25 07:00:38;;;;;;;;;;;;;;;11.06;100.00;-25377.16;5025646;28;19917;-77
2022/09/25 07:06:01;;;;;;;;;;;;;;;11.26;100.00;-25382.88;5007826;28;19945;-79
2022/09/25 07:08:28;;;;;;;;;;;;;;;11.32;100.00;-25384.78;5006337;28;19918;-77
2022/09/25 07:10:55;;;;;;;;;;;;;;;11.36;100.00;-25385.81;5037890;23;20391;-77
2022/09/25 07:13:23;;;;;;;;;;;;;;;11.43;100.00;-25387.84;5070730;28;19924;-76
2022/09/25 07:15:53;;;;;;;;;;;;;;;11.44;100.00;-25388.00;5070288;28;19917;-77
2022/09/25 07:18:18;;;;;;;;;;;;;;;11.50;100.00;-25389.91;5069018;28;19917;-77
2022/09/25 07:20:45;;;;;;;;;;;;;;;11.63;100.00;-25393.56;5069415;28;19917;-77
2022/09/25 07:23:14;;;;;;;;;;;;;;;11.65;100.00;-25394.16;5070501;28;19916;-77
2022/09/25 07:25:39;;;;;;;;;;;;;;;11.85;100.00;-25399.72;5070583;28;19988;-77
2022/09/25 07:28:07;;;;;;;;;;;;;;;11.92;100.00;-25401.63;5070715;28;20011;-78
2022/09/25 07:30:33;;;;;;;;;;;;;;;11.96;100.00;-25402.78;5087576;28;19916;-77
2022/09/25 07:32:58;;;;;;;;;;;;;;;12.03;100.00;-25405.00;5071190;28;20011;-77
2022/09/25 07:35:26;;;;;;;;;;;;;;;12.11;100.00;-25407.19;5070435;28;19920;-77
2022/09/25 07:37:51;;;;;;;;;;;;;;;12.28;100.00;-25412.00;5044307;28;19916;-78
2022/09/25 07:40:16;;;;;;;;;;;;;;;12.35;100.00;-25414.06;5050222;28;19970;-77
2022/09/25 07:42:49;;;;;;;;;;;;;;;12.44;100.00;-25416.53;5048975;28;20443;-77
2022/09/25 07:45:15;;;;;;;;;;;;;;;12.63;100.00;-25421.81;5047570;28;19920;-76
2022/09/25 07:47:42;;;;;;;;;;;;;;;12.83;100.00;-25427.66;5029867;28;19927;-77
2022/09/25 07:50:08;;;;;;;;;;;;;;;12.90;100.00;-25429.69;5031203;28;19921;-79
2022/09/25 07:52:37;;;;;;;;;;;;;;;13.32;100.00;-25441.38;5028834;28;19921;-78
2022/09/25 07:55:05;;;;;;;;;;;;;;;13.91;100.00;-25458.31;5047224;28;19928;-77
2022/09/25 07:57:30;;;;;;;;;;;;;;;14.42;100.00;-25472.59;5042227;28;19921;-79
2022/09/25 07:59:56;;;;;;;;;;;;;;;14.88;100.00;-25485.72;5042374;28;19968;-79
2022/09/25 08:02:23;;;;;;;;;;;;;;;15.18;100.00;-25492.38;5061281;28;19928;-78
2022/09/25 08:04:49;;;;;;;;;;;;;;;15.99;100.00;-16287.13;5043364;28;19924;-77
2022/09/25 08:07:16;;;;;;;;;;;;;;;16.43;100.00;-2068.09;5059080;28;20300;-75
2022/09/25 08:09:43;;;;;;;;;;;;;;;16.63;100.00;18543.81;5042225;28;19954;-75
2022/09/25 08:12:13;;;;;;;;;;;;;;;16.61;100.00;43620.00;5074428;28;19920;-77
2022/09/25 08:14:38;;;;;;;;;;;;;;;15.97;100.00;85000.91;5038357;28;19960;-77
2022/09/25 08:17:03;;;;;;;;;;;;;;;15.97;100.00;119344.91;5038267;28;19916;-74
2022/09/25 08:19:32;;;;;;;;;;;;;;;16.06;100.00;146773.41;5048031;28;19921;-77
2022/09/25 08:22:13;;;;;;;;;;;;;;;15.75;100.00;146695.47;5037595;28;20280;-77
2022/09/25 08:24:40;;;;;;;;;;;;;;;15.59;100.00;146657.16;5055274;28;19924;-77
2022/09/25 08:27:07;;;;;;;;;;;;;;;15.49;100.00;146631.66;5052286;28;19924;-81
2022/09/25 08:29:32;;;;;;;;;;;;;;;15.05;100.00;146523.13;5030183;28;19925;-80
2022/09/25 08:31:58;;;;;;;;;;;;;;;15.15;100.00;146546.09;5050183;28;19923;-78
2022/09/25 08:34:36;;;;;;;;;;;;;;;15.07;100.00;146526.97;5032959;28;19921;-77
2022/09/25 08:37:07;;;;;;;;;;;;;;;15.40;100.00;146608.69;5052221;28;20016;-78
2022/09/25 08:39:36;;;;;;;;;;;;;;;16.02;100.00;146763.22;5030685;28;20052;-80
2022/09/25 08:42:06;;;;;;;;;;;;;;;16.31;100.00;146834.72;5046527;28;19956;-79
2022/09/25 08:44:46;;;;;;;;;;;;;;;17.02;100.00;147011.13;5046403;28;19916;-84
2022/09/25 08:50:17;;;;;;;;;;;;;;;17.83;100.00;147211.81;5037739;28;19923;-78
2022/09/25 08:53:02;;;;;;;;;;;;;;;16.95;100.00;146993.22;5053461;28;19921;-77
2022/09/25 08:58:16;;;;;;;;;;;;;;;17.32;100.00;147086.50;5056599;28;19995;-76
2022/09/25 09:00:44;;;;;;;;;;;;;;;17.12;100.00;147036.69;5037609;28;19980;-76
2022/09/25 09:03:13;;;;;;;;;;;;;;;17.04;100.00;147017.53;5037133;28;19920;-77
2022/09/25 09:05:41;;;;;;;;;;;;;;;17.13;100.00;147039.22;5023273;28;19956;-76
2022/09/25 09:08:11;;;;;;;;;;;;;;;17.07;100.00;147023.88;5057111;28;19980;-76
2022/09/25 09:10:48;;;;;;;;;;;;;;;16.99;100.00;147003.44;5058170;28;19963;-77
2022/09/25 09:13:24;;;;;;;;;;;;;;;16.60;100.00;146907.56;5078954;28;19959;-76
2022/09/25 09:15:58;;;;;;;;;;;;;;;16.91;100.00;146983.00;5077923;28;19938;-81
2022/09/25 09:18:31;;;;;;;;;;;;;;;16.63;100.00;146915.22;5058277;28;19920;-80
2022/09/25 09:21:21;;;;;;;;;;;;;;;16.57;100.00;146898.63;5077467;28;20430;-76
2022/09/25 09:24:00;;;;;;;;;;;;;;;16.33;100.00;146841.13;5067948;28;19916;-77
2022/09/25 09:26:32;;;;;;;;;;;;;;;15.73;100.00;146690.38;5077130;28;19970;-78
2022/09/25 09:28:57;;;;;;;;;;;;;;;15.78;100.00;146703.19;5057919;28;19963;-76
2022/09/25 09:31:52;;;;;;;;;;;;;;;15.60;100.00;146658.47;5058534;28;20261;-77
2022/09/25 09:34:31;;;;;;;;;;;;;;;15.21;100.00;146561.44;5073446;28;19916;-78
2022/09/25 09:37:02;;;;;;;;;;;;;;;14.90;100.00;146484.91;5056277;28;19916;-78
2022/09/25 09:39:31;;;;;;;;;;;;;;;14.61;100.00;146412.16;5073703;28;19916;-76
2022/09/25 09:42:00;;;;;;;;;;;;;;;14.38;100.00;146354.69;5055687;28;19924;-76
2022/09/25 09:44:30;;;;;;;;;;;;;;;14.23;100.00;146319.00;5054989;28;19975;-77
2022/09/25 09:47:07;;;;;;;;;;;;;;;14.47;100.00;146378.94;5055668;28;20054;-76
2022/09/25 09:49:41;;;;;;;;;;;;;;;14.82;100.00;146464.44;5055536;28;20011;-77
2022/09/25 09:52:16;;;;;;;;;;;;;;;15.02;100.00;146514.22;5054759;28;20019;-76
2022/09/25 09:54:48;;;;;;;;;;;;;;;15.26;100.00;146575.47;5055269;28;19943;-77
2022/09/25 09:57:21;;;;;;;;;;;;;;;15.35;100.00;146597.19;5054887;28;20015;-78
2022/09/25 09:59:52;;;;;;;;;;;;;;;15.33;100.00;146592.06;5038783;28;19920;-77
2022/09/25 10:02:31;;;;;;;;;;;;;;;15.37;100.00;146602.28;5073509;28;19917;-78
2022/09/25 10:04:58;;;;;;;;;;;;;;;15.54;100.00;146644.41;5055336;28;19916;-77
2022/09/25 10:07:27;;;;;;;;;;;;;;;15.67;100.00;146676.31;5054241;28;20070;-77
2022/09/25 10:09:55;;;;;;;;;;;;;;;15.97;100.00;146751.72;5038903;28;19920;-77
2022/09/25 10:12:29;;;;;;;;;;;;;;;16.12;100.00;146788.75;5035148;28;19925;-77
2022/09/25 10:14:55;;;;;;;;;;;;;;;16.52;100.00;146888.38;5054518;28;19917;-77
2022/09/25 10:17:25;;;;;;;;;;;;;;;16.48;100.00;146878.19;5057305;28;19920;-78
2022/09/25 10:20:22;;;;;;;;;;;;;;;16.52;100.00;146888.38;5060859;28;19928;-78
2022/09/25 10:22:55;;;;;;;;;;;;;;;16.59;100.00;146904.97;5055973;28;19923;-80
2022/09/25 10:25:42;;;;;;;;;;;;;;;16.62;100.00;146911.38;5053723;28;19917;-79
2022/09/25 10:28:27;;;;;;;;;;;;;;;16.52;100.00;146887.13;5052826;28;19927;-77
2022/09/25 10:31:01;;;;;;;;;;;;;;;16.99;100.00;147004.72;5071323;28;19921;-77
2022/09/25 10:33:30;;;;;;;;;;;;;;;17.34;100.00;147091.66;5063477;28;19952;-76
2022/09/25 10:35:57;;;;;;;;;;;;;;;17.39;100.00;147104.41;5053703;28;20359;-79
2022/09/25 10:38:25;;;;;;;;;;;;;;;17.30;100.00;147081.41;5054360;28;19951;-79
2022/09/25 10:40:59;;;;;;;;;;;;;;;16.92;100.00;146985.53;5056111;28;20238;-77
2022/09/25 10:43:24;;;;;;;;;;;;;;;16.97;100.00;146998.34;5073561;28;19920;-80
2022/09/25 10:46:04;;;;;;;;;;;;;;;16.81;100.00;146959.97;5061108;28;20023;-79
2022/09/25 10:51:25;;;;;;;;;;;;;;;16.62;100.00;146912.66;5078378;28;19932;-79
2022/09/25 10:54:08;;;;;;;;;;;;;;;16.82;100.00;146961.22;5077011;28;19923;-82
2022/09/25 10:56:34;;;;;;;;;;;;;;;16.77;100.00;146948.47;5060485;28;19920;-78
2022/09/25 10:59:00;;;;;;;;;;;;;;;16.67;100.00;146924.16;5057815;28;20007;-78
2022/09/25 11:01:37;;;;;;;;;;;;;;;16.22;100.00;146811.72;5060199;28;19920;-82
2022/09/25 11:04:08;;;;;;;;;;;;;;;15.60;100.00;146659.75;5058198;28;19939;-78
2022/09/25 11:06:34;;;;;;;;;;;;;;;15.33;100.00;146590.81;5076896;28;19924;-78
2022/09/25 11:09:08;;;;;;;;;;;;;;;15.03;100.00;146518.03;5057223;28;20037;-77
2022/09/25 11:11:33;;;;;;;;;;;;;;;15.24;100.00;146569.09;5056812;28;19928;-78
2022/09/25 11:14:02;;;;;;;;;;;;;;;15.18;100.00;146553.75;5057257;28;20118;-77
2022/09/25 11:16:46;;;;;;;;;;;;;;;15.20;100.00;146558.91;5057063;28;20010;-79
2022/09/25 11:19:13;;;;;;;;;;;;;;;15.20;100.00;146560.16;5057579;28;19972;-78
2022/09/25 11:21:58;;;;;;;;;;;;;;;15.37;100.00;146602.28;5057369;28;19919;-78
2022/09/25 11:24:50;;;;;;;;;;;;;;;15.52;100.00;121642.06;5056350;28;20401;-77
2022/09/25 11:27:15;;;;;;;;;;;;;;;15.71;100.00;111106.72;5032868;28;19924;-79
2022/09/25 11:29:53;;;;;;;;;;;;;;;15.41;100.00;109347.94;5056974;28;19920;-77
2022/09/25 11:32:19;;;;;;;;;;;;;;;15.65;100.00;101569.88;5057532;28;20253;-77
2022/09/25 11:34:47;;;;;;;;;;;;;;;15.57;100.00;121994.19;5056743;28;20027;-78
2022/09/25 11:37:27;;;;;;;;;;;;;;;15.47;100.00;133597.72;5056993;28;19921;-78
2022/09/25 11:43:24;;;;;;;;;;;;;;;15.27;100.00;124320.97;5075039;28;19974;-78
2022/09/25 11:46:15;;;;;;;;;;;;;;;15.39;100.00;122297.09;5054268;28;19920;-80
2022/09/25 11:48:46;;;;;;;;;;;;;;;15.68;100.00;143471.13;5036699;28;20633;-76
2022/09/25 11:51:21;;;;;;;;;;;;;;;15.84;100.00;146717.25;5062711;28;19924;-76
2022/09/25 11:54:07;;;;;;;;;;;;;;;15.86;100.00;146723.59;5054475;28;19928;-77
2022/09/25 11:57:06;;;;;;;;;;;;;;;15.89;100.00;146731.28;5055130;28;19916;-77
2022/09/25 12:00:11;;;;;;;;;;;;;;;15.59;100.00;146657.16;5039454;28;19924;-77
2022/09/25 12:02:49;;;;;;;;;;;;;;;15.58;100.00;146653.34;5059134;28;19978;-77
2022/09/25 12:05:37;;;;;;;;;;;;;;;15.59;100.00;146655.91;5072226;28;20341;-78
2022/09/25 12:08:08;;;;;;;;;;;;;;;15.29;100.00;146581.88;5055439;28;19920;-78
2022/09/25 12:11:04;;;;;;;;;;;;;;;15.56;100.00;146648.25;5073696;28;20323;-79
2022/09/25 12:13:44;;;;;;;;;;;;;;;15.49;100.00;146631.66;5055953;28;20407;-78
2022/09/25 12:16:25;;;;;;;;;;;;;;;15.61;100.00;146661.00;5054924;28;20376;-78
2022/09/25 12:19:22;;;;;;;;;;;;;;;15.67;100.00;146676.31;5070963;28;19921;-81
2022/09/25 12:22:22;;;;;;;;;;;;;;;15.73;100.00;146690.38;5072882;28;20030;-78
2022/09/25 12:25:05;;;;;;;;;;;;;;;15.81;100.00;146709.59;5056276;28;19917;-79
2022/09/25 12:28:09;;;;;;;;;;;;;;;15.95;100.00;146746.59;5068451;28;19990;-77
2022/09/25 12:30:58;;;;;;;;;;;;;;;16.09;100.00;146781.06;5035801;28;19921;-80
2022/09/25 12:33:35;;;;;;;;;;;;;;;16.55;100.00;146893.53;5001533;28;19925;-78
2022/09/25 12:36:41;;;;;;;;;;;;;;;16.65;100.00;146920.31;5057222;28;19931;-77
2022/09/25 12:39:11;;;;;;;;;;;;;;;16.62;100.00;146911.38;5071572;28;19928;-77
2022/09/25 12:41:46;;;;;;;;;;;;;;;16.56;100.00;146896.06;5069198;28;19927;-80
2022/09/25 12:44:23;;;;;;;;;;;;;;;16.38;100.00;146852.63;5055094;28;19927;-77
2022/09/25 12:46:50;;;;;;;;;;;;;;;16.35;100.00;146844.97;5072799;28;19921;-78
2022/09/25 12:49:30;;;;;;;;;;;;;;;16.60;100.00;146906.28;5053482;28;20258;-77
2022/09/25 12:52:20;;;;;;;;;;;;;;;16.72;100.00;146936.97;5054967;28;19927;-77
2022/09/25 12:54:57;;;;;;;;;;;;;;;16.99;100.00;147004.72;5052066;28;19924;-78
2022/09/25 12:57:55;;;;;;;;;;;;;;;17.20;100.00;147057.13;5033890;28;19916;-78
2022/09/25 13:00:23;;;;;;;;;;;;;;;17.47;100.00;147122.34;5029829;28;19943;-77
2022/09/25 13:02:59;;;;;;;;;;;;;;;17.32;100.00;147086.50;5031434;28;19916;-80
2022/09/25 13:05:48;;;;;;;;;;;;;;;16.79;100.00;146954.81;5049667;28;19931;-77
2022/09/25 13:08:15;;;;;;;;;;;;;;;16.68;100.00;146927.97;5038420;28;19928;-80
2022/09/25 13:11:05;;;;;;;;;;;;;;;16.78;100.00;146950.97;5054261;28;20296;-77
2022/09/25 13:13:43;;;;;;;;;;;;;;;17.17;100.00;147048.19;5024760;28;19917;-79
2022/09/25 13:16:15;;;;;;;;;;;;;;;17.27;100.00;147073.72;5051638;28;20006;-79
2022/09/25 13:18:47;;;;;;;;;;;;;;;17.34;100.00;147091.66;5072284;28;19974;-77
2022/09/25 13:21:23;;;;;;;;;;;;;;;17.46;100.00;147121.03;5056696;28;19917;-79
2022/09/25 13:23:53;;;;;;;;;;;;;;;17.19;100.00;147054.56;5054446;28;19947;-78